Time;durP1;ratioP1;P1;durP2;ratioP2;P2;SDS_P1;SDS_P2;PMS_P1;PMS_P2;Temp;Humidity;BMP_temperature;BMP_pressure;BME280_temperature;BME280_humidity;BME280_pressure;Samples;Min_cycle;Max_cycle;Signal;HPM_P1;HPM_P2
2022/12/23 00:01:25;;;;;;;;;8.50;8.50;;;;;;;;5058230;28;45419;-68
2022/12/23 00:03:51;;;;;;;;;7.00;5.75;;;;;;;;5074876;27;47296;-68
2022/12/23 00:06:17;;;;;;;;;6.75;6.50;;;;;;;;5076630;27;45486;-67
2022/12/23 00:08:42;;;;;;;;;7.50;5.25;;;;;;;;5087408;27;45167;-67
2022/12/23 00:11:12;;;;;;;;;6.25;5.00;;;;;;;;5085652;27;45753;-66
2022/12/23 00:16:21;;;;;;;;;5.50;4.25;;;;;;;;5074545;27;45406;-67
2022/12/23 00:18:47;;;;;;;;;6.25;4.75;;;;;;;;5076048;27;45415;-67
2022/12/23 00:21:13;;;;;;;;;7.50;4.00;;;;;;;;5079533;28;45418;-68
2022/12/23 00:23:40;;;;;;;;;5.25;3.25;;;;;;;;5079816;27;45470;-67
2022/12/23 00:26:06;;;;;;;;;3.00;3.00;;;;;;;;5079113;28;45336;-67
2022/12/23 00:28:32;;;;;;;;;5.50;3.50;;;;;;;;5079416;28;45209;-68
2022/12/23 00:31:06;;;;;;;;;6.00;3.50;;;;;;;;5079039;27;45377;-67
2022/12/23 00:33:33;;;;;;;;;5.25;2.00;;;;;;;;5079300;28;45893;-67
2022/12/23 00:35:59;;;;;;;;;2.25;2.25;;;;;;;;5079087;27;45376;-67
2022/12/23 00:43:56;;;;;;;;;5.75;3.00;;;;;;;;5079300;27;45733;-67
2022/12/23 00:46:21;;;;;;;;;3.75;2.00;;;;;;;;5078294;27;45490;-67
2022/12/23 00:51:31;;;;;;;;;3.00;1.50;;;;;;;;5079170;27;46167;-67
2022/12/23 00:53:56;;;;;;;;;1.75;1.75;;;;;;;;5075530;27;46511;-66
2022/12/23 00:56:21;;;;;;;;;3.00;1.75;;;;;;;;5079232;27;45391;-66
2022/12/23 00:58:46;;;;;;;;;4.50;2.00;;;;;;;;5093379;27;45345;-66
2022/12/23 01:06:39;;;;;;;;;7.00;3.75;;;;;;;;5078419;27;45437;-66
2022/12/23 01:09:04;;;;;;;;;2.00;2.00;;;;;;;;5078171;27;45383;-66
2022/12/23 01:11:29;;;;;;;;;2.25;1.50;;;;;;;;5078409;27;45478;-66
2022/12/23 01:13:55;;;;;;;;;2.50;2.00;;;;;;;;5077830;27;45404;-66
2022/12/23 01:16:20;;;;;;;;;4.00;1.00;;;;;;;;5077523;27;45386;-66
2022/12/23 01:18:45;;;;;;;;;5.25;3.00;;;;;;;;5078703;27;45344;-66
2022/12/23 01:21:11;;;;;;;;;5.00;1.75;;;;;;;;5079366;28;45481;-66
2022/12/23 01:23:36;;;;;;;;;2.50;2.00;;;;;;;;5078508;27;46058;-66
2022/12/23 01:26:03;;;;;;;;;4.00;1.25;;;;;;;;5078176;27;45475;-66
2022/12/23 01:28:29;;;;;;;;;3.00;1.00;;;;;;;;5079231;28;45360;-66
2022/12/23 01:30:54;;;;;;;;;4.75;2.25;;;;;;;;5079164;28;45372;-66
2022/12/23 01:33:19;;;;;;;;;2.00;2.00;;;;;;;;5077371;27;45468;-66
2022/12/23 01:35:44;;;;;;;;;6.25;2.00;;;;;;;;5078432;28;45419;-66
2022/12/23 01:38:10;;;;;;;;;2.75;1.50;;;;;;;;5077640;27;45437;-67
2022/12/23 01:40:44;;;;;;;;;5.50;1.75;;;;;;;;5079077;28;45372;-67
2022/12/23 01:43:14;;;;;;;;;1.25;1.25;;;;;;;;5077972;27;46132;-68
2022/12/23 01:45:39;;;;;;;;;5.75;2.25;;;;;;;;5058469;28;45494;-65
2022/12/23 01:48:25;;;;;;;;;2.25;2.00;;;;;;;;5068311;27;45445;-66
2022/12/23 01:50:52;;;;;;;;;1.25;1.00;;;;;;;;5078983;28;45308;-66
2022/12/23 01:53:23;;;;;;;;;3.50;2.00;;;;;;;;5076539;27;45721;-66
2022/12/23 01:55:51;;;;;;;;;3.00;1.00;;;;;;;;5078423;28;45467;-65
2022/12/23 01:58:19;;;;;;;;;2.75;2.75;;;;;;;;5078162;27;45356;-67
2022/12/23 02:03:44;;;;;;;;;3.75;1.00;;;;;;;;5077580;27;45498;-66
2022/12/23 02:11:42;;;;;;;;;2.00;2.00;;;;;;;;5078522;28;45426;-67
2022/12/23 02:17:19;;;;;;;;;2.75;0.00;;;;;;;;5078214;28;45284;-66
2022/12/23 02:19:47;;;;;;;;;2.00;1.75;;;;;;;;5078292;28;45397;-66
2022/12/23 02:22:31;;;;;;;;;3.00;2.00;;;;;;;;5077477;27;45472;-66
2022/12/23 02:25:25;;;;;;;;;2.75;1.00;;;;;;;;5057832;28;46474;-66
2022/12/23 02:28:10;;;;;;;;;3.75;0.75;;;;;;;;5063522;27;45364;-65
2022/12/23 02:30:35;;;;;;;;;5.25;2.00;;;;;;;;5077790;27;45407;-67
2022/12/23 02:33:07;;;;;;;;;2.00;2.00;;;;;;;;5077385;27;45636;-66
2022/12/23 02:35:35;;;;;;;;;3.25;2.00;;;;;;;;5076787;27;45458;-66
2022/12/23 02:38:09;;;;;;;;;2.75;1.00;;;;;;;;5077476;27;45300;-66
2022/12/23 02:40:35;;;;;;;;;2.75;1.50;;;;;;;;5077946;28;45351;-66
2022/12/23 02:43:04;;;;;;;;;3.00;1.00;;;;;;;;5059005;28;45550;-66
2022/12/23 02:45:36;;;;;;;;;2.00;1.00;;;;;;;;5076910;27;46579;-66
2022/12/23 02:48:06;;;;;;;;;2.00;2.00;;;;;;;;5068404;28;45415;-66
2022/12/23 02:50:35;;;;;;;;;1.50;1.50;;;;;;;;5064684;28;45149;-67
2022/12/23 02:53:06;;;;;;;;;0.25;0.25;;;;;;;;5075801;27;45429;-66
2022/12/23 02:55:33;;;;;;;;;3.00;1.00;;;;;;;;5076165;27;45570;-66
2022/12/23 02:58:01;;;;;;;;;4.25;1.50;;;;;;;;5076263;27;45258;-67
2022/12/23 03:00:27;;;;;;;;;3.00;1.25;;;;;;;;5077637;28;45357;-66
2022/12/23 03:02:52;;;;;;;;;5.75;3.00;;;;;;;;5077345;27;45314;-66
2022/12/23 03:05:25;;;;;;;;;2.75;0.00;;;;;;;;5077509;28;45607;-66
2022/12/23 03:07:51;;;;;;;;;1.50;1.00;;;;;;;;5077161;28;45952;-66
2022/12/23 03:10:27;;;;;;;;;1.50;1.00;;;;;;;;5077772;28;45747;-66
2022/12/23 03:12:52;;;;;;;;;3.25;1.00;;;;;;;;5076763;27;45367;-66
2022/12/23 03:15:20;;;;;;;;;2.25;1.00;;;;;;;;5076863;27;45398;-66
2022/12/23 03:17:58;;;;;;;;;1.00;1.00;;;;;;;;5077515;28;45324;-66
2022/12/23 03:20:31;;;;;;;;;0.25;0.25;;;;;;;;5077523;28;45270;-66
2022/12/23 03:22:56;;;;;;;;;2.00;0.25;;;;;;;;5076342;27;45572;-66
2022/12/23 03:25:29;;;;;;;;;2.50;0.00;;;;;;;;5077255;28;46434;-66
2022/12/23 03:28:01;;;;;;;;;1.00;0.00;;;;;;;;5077130;28;45390;-66
2022/12/23 03:30:28;;;;;;;;;1.00;1.00;;;;;;;;5076816;27;45443;-66
2022/12/23 03:33:05;;;;;;;;;3.25;1.00;;;;;;;;5076698;27;45396;-66
2022/12/23 03:35:44;;;;;;;;;1.75;1.75;;;;;;;;5076635;27;46838;-66
2022/12/23 03:38:12;;;;;;;;;2.00;0.75;;;;;;;;5075832;27;45341;-66
2022/12/23 03:40:42;;;;;;;;;1.25;1.00;;;;;;;;5077005;27;45380;-67
2022/12/23 03:43:13;;;;;;;;;2.25;1.00;;;;;;;;5075993;27;45417;-67
2022/12/23 03:45:41;;;;;;;;;3.25;1.00;;;;;;;;5076870;27;46463;-65
2022/12/23 03:48:25;;;;;;;;;2.50;1.00;;;;;;;;5070680;27;45221;-66
2022/12/23 03:50:52;;;;;;;;;3.25;1.00;;;;;;;;5077110;28;45485;-66
2022/12/23 03:53:21;;;;;;;;;4.00;1.50;;;;;;;;5077371;28;45400;-66
2022/12/23 03:55:53;;;;;;;;;1.25;1.00;;;;;;;;5079620;27;45480;-67
2022/12/23 03:58:32;;;;;;;;;3.00;1.00;;;;;;;;5079396;27;45332;-68
2022/12/23 04:01:03;;;;;;;;;2.50;1.00;;;;;;;;5060891;28;45399;-68
2022/12/23 04:03:40;;;;;;;;;5.50;1.50;;;;;;;;5082060;27;45387;-68
2022/12/23 04:06:08;;;;;;;;;2.25;1.00;;;;;;;;5080114;28;46654;-66
2022/12/23 04:08:36;;;;;;;;;1.50;1.00;;;;;;;;5079240;28;45457;-66
2022/12/23 04:11:01;;;;;;;;;3.25;2.00;;;;;;;;5079773;27;45825;-67
2022/12/23 04:13:27;;;;;;;;;1.00;1.00;;;;;;;;5079528;27;45453;-67
2022/12/23 04:15:52;;;;;;;;;3.00;2.00;;;;;;;;5079839;28;45337;-67
2022/12/23 04:18:18;;;;;;;;;2.50;0.75;;;;;;;;5078406;27;45471;-67
2022/12/23 04:20:43;;;;;;;;;2.00;2.00;;;;;;;;5078816;27;45410;-66
2022/12/23 04:23:08;;;;;;;;;3.50;1.50;;;;;;;;5079346;27;45455;-66
2022/12/23 04:25:33;;;;;;;;;3.00;2.00;;;;;;;;5079536;27;46445;-66
2022/12/23 04:27:58;;;;;;;;;4.75;2.50;;;;;;;;5080022;27;45352;-67
2022/12/23 04:30:23;;;;;;;;;1.00;1.00;;;;;;;;5080173;28;45258;-66
2022/12/23 04:32:49;;;;;;;;;7.00;2.00;;;;;;;;5079384;27;45392;-66
2022/12/23 04:35:14;;;;;;;;;2.00;2.00;;;;;;;;5080061;28;45395;-66
2022/12/23 04:37:39;;;;;;;;;5.75;1.00;;;;;;;;5079193;27;45589;-66
2022/12/23 04:40:05;;;;;;;;;8.00;1.50;;;;;;;;5079843;28;45295;-66
2022/12/23 04:42:30;;;;;;;;;2.00;2.00;;;;;;;;5078513;27;45771;-66
2022/12/23 04:44:55;;;;;;;;;4.50;2.00;;;;;;;;5079287;28;45372;-66
2022/12/23 04:47:20;;;;;;;;;4.00;3.00;;;;;;;;5076039;27;45609;-67
2022/12/23 04:49:46;;;;;;;;;3.50;2.00;;;;;;;;5078695;27;45501;-67
2022/12/23 04:52:11;;;;;;;;;3.75;3.00;;;;;;;;5080008;28;45462;-66
2022/12/23 04:54:36;;;;;;;;;3.25;1.75;;;;;;;;5078873;27;47219;-68
2022/12/23 04:57:02;;;;;;;;;7.00;2.50;;;;;;;;5079795;28;45292;-68
2022/12/23 04:59:27;;;;;;;;;3.00;2.00;;;;;;;;5079317;27;45471;-68
2022/12/23 05:01:52;;;;;;;;;1.00;1.00;;;;;;;;5078879;27;45364;-66
2022/12/23 05:04:17;;;;;;;;;1.75;1.50;;;;;;;;5078471;27;45375;-65
2022/12/23 05:06:43;;;;;;;;;3.00;1.50;;;;;;;;5078757;27;45418;-65
2022/12/23 05:09:08;;;;;;;;;6.00;1.00;;;;;;;;5079540;27;45318;-65
2022/12/23 05:11:33;;;;;;;;;4.75;2.00;;;;;;;;5078957;27;45535;-66
2022/12/23 05:13:59;;;;;;;;;4.75;0.25;;;;;;;;5078220;27;45394;-66
2022/12/23 05:16:24;;;;;;;;;2.25;2.00;;;;;;;;5079336;28;45397;-66
2022/12/23 05:18:49;;;;;;;;;4.50;2.00;;;;;;;;5079366;27;45451;-65
2022/12/23 05:21:14;;;;;;;;;1.00;1.00;;;;;;;;5079518;28;45311;-65
2022/12/23 05:23:40;;;;;;;;;5.50;2.25;;;;;;;;5077837;27;46497;-65
2022/12/23 05:26:05;;;;;;;;;2.75;2.75;;;;;;;;5079007;28;45383;-65
2022/12/23 05:28:30;;;;;;;;;2.75;2.00;;;;;;;;5079283;28;45492;-65
2022/12/23 05:30:59;;;;;;;;;3.25;2.00;;;;;;;;5077831;27;45499;-65
2022/12/23 05:33:24;;;;;;;;;3.25;2.25;;;;;;;;5078023;27;46035;-65
2022/12/23 05:35:49;;;;;;;;;1.00;1.00;;;;;;;;5078895;27;45239;-65
2022/12/23 05:38:14;;;;;;;;;3.00;1.00;;;;;;;;5078998;28;45481;-65
2022/12/23 05:40:40;;;;;;;;;0.50;0.00;;;;;;;;5079315;28;45644;-65
2022/12/23 05:43:05;;;;;;;;;4.00;2.00;;;;;;;;5078624;28;45539;-66
2022/12/23 05:45:33;;;;;;;;;3.25;1.50;;;;;;;;5078952;28;45380;-65
2022/12/23 05:47:58;;;;;;;;;6.00;3.00;;;;;;;;5077927;27;45360;-65
2022/12/23 05:50:24;;;;;;;;;2.50;2.25;;;;;;;;5078161;27;45443;-65
2022/12/23 05:52:49;;;;;;;;;2.25;2.00;;;;;;;;5078743;27;45551;-65
2022/12/23 05:55:14;;;;;;;;;5.00;2.00;;;;;;;;5078574;27;45300;-65
2022/12/23 05:57:39;;;;;;;;;5.50;4.00;;;;;;;;5078946;28;45445;-65
2022/12/23 06:00:05;;;;;;;;;5.00;2.50;;;;;;;;5077995;28;45384;-65
2022/12/23 06:02:30;;;;;;;;;3.00;1.25;;;;;;;;5060074;28;45408;-65
2022/12/23 06:04:56;;;;;;;;;9.75;6.00;;;;;;;;5078653;28;45455;-65
2022/12/23 06:07:21;;;;;;;;;5.00;3.00;;;;;;;;5078046;27;45315;-65
2022/12/23 06:09:46;;;;;;;;;15.75;10.75;;;;;;;;5077833;28;45566;-65
2022/12/23 06:12:11;;;;;;;;;2.75;2.75;;;;;;;;5078248;28;46533;-65
2022/12/23 06:14:37;;;;;;;;;2.75;2.50;;;;;;;;5078114;27;45311;-65
2022/12/23 06:17:02;;;;;;;;;9.75;9.75;;;;;;;;5077437;28;45383;-65
2022/12/23 06:19:27;;;;;;;;;52.00;42.33;;;;;;;;5078493;27;45171;-65
2022/12/23 06:21:52;;;;;;;;;12.00;12.00;;;;;;;;5078057;28;45496;-65
2022/12/23 06:24:17;;;;;;;;;6.00;4.75;;;;;;;;5077376;27;45383;-65
2022/12/23 06:26:43;;;;;;;;;3.75;3.00;;;;;;;;5077630;28;45486;-66
2022/12/23 06:29:09;;;;;;;;;4.00;1.75;;;;;;;;5078327;28;45463;-65
2022/12/23 06:31:34;;;;;;;;;5.75;1.75;;;;;;;;5076999;27;45446;-66
2022/12/23 06:33:59;;;;;;;;;3.00;1.50;;;;;;;;5078250;28;45535;-65
2022/12/23 06:36:24;;;;;;;;;5.75;2.75;;;;;;;;5077239;27;45847;-65
2022/12/23 06:38:50;;;;;;;;;8.00;3.25;;;;;;;;5078266;28;45318;-65
2022/12/23 06:41:15;;;;;;;;;6.75;5.00;;;;;;;;5076868;27;45339;-65
2022/12/23 06:43:40;;;;;;;;;14.75;10.00;;;;;;;;5077711;28;45363;-66
2022/12/23 06:46:05;;;;;;;;;18.67;16.00;;;;;;;;5077113;28;45390;-65
2022/12/23 06:48:30;;;;;;;;;8.00;5.00;;;;;;;;5077562;27;45438;-65
2022/12/23 06:50:56;;;;;;;;;7.75;5.00;;;;;;;;5077809;28;47316;-65
2022/12/23 06:53:21;;;;;;;;;10.25;6.75;;;;;;;;5077657;28;46064;-65
2022/12/23 06:55:46;;;;;;;;;9.75;7.25;;;;;;;;5077098;27;45261;-66
2022/12/23 06:58:11;;;;;;;;;17.67;15.00;;;;;;;;5077545;27;45518;-66
2022/12/23 07:00:36;;;;;;;;;5.50;3.00;;;;;;;;5076821;28;45458;-66
2022/12/23 07:03:02;;;;;;;;;4.00;3.50;;;;;;;;5077605;27;45447;-65
2022/12/23 07:05:27;;;;;;;;;8.50;7.00;;;;;;;;5077572;28;45331;-68
2022/12/23 07:07:52;;;;;;;;;3.50;3.50;;;;;;;;5059499;28;45384;-65
2022/12/23 07:10:17;;;;;;;;;9.00;5.00;;;;;;;;5076895;27;45329;-65
2022/12/23 07:12:42;;;;;;;;;6.75;4.75;;;;;;;;5077395;28;45466;-65
2022/12/23 07:15:08;;;;;;;;;7.00;5.25;;;;;;;;5076885;27;45226;-65
2022/12/23 07:17:33;;;;;;;;;6.00;4.00;;;;;;;;5076813;28;45469;-66
2022/12/23 07:19:59;;;;;;;;;9.25;4.75;;;;;;;;5077204;28;46625;-65
2022/12/23 07:22:24;;;;;;;;;7.00;3.75;;;;;;;;5076831;28;45400;-65
2022/12/23 07:24:49;;;;;;;;;7.50;6.00;;;;;;;;5077496;28;45530;-65
2022/12/23 07:27:15;;;;;;;;;7.75;6.00;;;;;;;;5077668;28;45396;-65
2022/12/23 07:29:40;;;;;;;;;14.67;14.67;;;;;;;;5082506;28;45425;-65
2022/12/23 07:32:05;;;;;;;;;7.75;7.00;;;;;;;;5082336;27;45412;-65
2022/12/23 07:34:30;;;;;;;;;8.00;8.00;;;;;;;;5065250;28;45526;-65
2022/12/23 07:36:56;;;;;;;;;10.50;10.00;;;;;;;;5084192;27;45363;-65
2022/12/23 07:39:21;;;;;;;;;7.50;7.50;;;;;;;;5083867;27;45423;-65
2022/12/23 07:41:46;;;;;;;;;7.25;7.00;;;;;;;;5083028;28;45327;-66
2022/12/23 07:44:11;;;;;;;;;6.50;5.25;;;;;;;;5083717;28;45407;-65
2022/12/23 07:46:37;;;;;;;;;7.50;5.50;;;;;;;;5083886;27;45321;-65
2022/12/23 07:49:02;;;;;;;;;11.00;7.00;;;;;;;;5082436;27;45437;-65
2022/12/23 07:51:27;;;;;;;;;24.00;20.33;;;;;;;;5083249;27;45427;-65
2022/12/23 07:53:53;;;;;;;;;7.75;7.50;;;;;;;;5083787;27;45353;-65
2022/12/23 07:56:18;;;;;;;;;3.00;3.00;;;;;;;;5084070;28;45361;-65
2022/12/23 07:58:47;;;;;;;;;5.75;4.00;;;;;;;;5082921;28;46592;-65
2022/12/23 08:01:12;;;;;;;;;3.00;3.00;;;;;;;;5081923;27;45712;-65
2022/12/23 08:03:37;;;;;;;;;7.00;5.50;;;;;;;;5083933;28;45367;-65
2022/12/23 08:06:07;;;;;;;;;7.75;5.50;;;;;;;;5083547;28;45382;-65
2022/12/23 08:08:32;;;;;;;;;4.00;3.00;;;;;;;;5083346;28;45426;-65
2022/12/23 08:10:59;;;;;;;;;4.25;4.00;;;;;;;;5082797;27;45409;-65
2022/12/23 08:13:24;;;;;;;;;9.25;9.25;;;;;;;;5083022;27;45987;-65
2022/12/23 08:15:53;;;;;;;;;6.75;5.25;;;;;;;;5083561;27;45461;-65
2022/12/23 08:18:18;;;;;;;;;6.00;4.75;;;;;;;;5082597;27;46642;-65
2022/12/23 08:20:43;;;;;;;;;3.25;3.00;;;;;;;;5082382;27;45296;-65
2022/12/23 08:23:08;;;;;;;;;5.00;5.00;;;;;;;;5083699;28;45802;-65
2022/12/23 08:25:33;;;;;;;;;5.25;5.00;;;;;;;;5083544;27;45565;-65
2022/12/23 08:27:59;;;;;;;;;5.75;4.00;;;;;;;;5083285;27;46337;-65
2022/12/23 08:30:24;;;;;;;;;7.75;7.75;;;;;;;;5082295;28;45297;-65
2022/12/23 08:32:49;;;;;;;;;8.00;7.00;;;;;;;;5082316;27;45477;-65
2022/12/23 08:35:14;;;;;;;;;6.75;5.25;;;;;;;;5083596;27;45370;-65
2022/12/23 08:37:39;;;;;;;;;7.00;6.00;;;;;;;;5082489;27;46488;-65
2022/12/23 08:40:05;;;;;;;;;5.75;5.25;;;;;;;;5080338;27;45300;-65
2022/12/23 08:42:30;;;;;;;;;12.25;10.00;;;;;;;;5079732;27;45281;-65
2022/12/23 08:44:55;;;;;;;;;11.00;10.00;;;;;;;;5079676;28;45402;-65
2022/12/23 08:47:21;;;;;;;;;8.75;8.75;;;;;;;;5079054;28;45510;-65
2022/12/23 08:49:46;;;;;;;;;10.25;9.25;;;;;;;;5078395;28;45439;-65
2022/12/23 08:52:12;;;;;;;;;11.00;10.00;;;;;;;;5079862;27;45201;-65
2022/12/23 08:54:37;;;;;;;;;13.75;11.75;;;;;;;;5079661;27;45381;-65
2022/12/23 08:57:02;;;;;;;;;15.00;12.50;;;;;;;;5077738;28;45572;-65
2022/12/23 08:59:27;;;;;;;;;18.00;11.25;;;;;;;;5078624;28;45441;-65
2022/12/23 09:01:52;;;;;;;;;18.25;14.25;;;;;;;;5078442;27;45195;-65
2022/12/23 09:04:18;;;;;;;;;17.67;16.00;;;;;;;;5080001;27;45213;-65
2022/12/23 09:06:44;;;;;;;;;12.75;12.75;;;;;;;;5078579;27;45460;-63
2022/12/23 09:09:10;;;;;;;;;12.25;12.25;;;;;;;;5078479;27;45590;-63
2022/12/23 09:11:36;;;;;;;;;11.50;11.50;;;;;;;;5079375;28;45175;-63
2022/12/23 09:14:01;;;;;;;;;13.00;10.75;;;;;;;;5072709;28;45624;-66
2022/12/23 09:16:27;;;;;;;;;6.25;6.25;;;;;;;;5063189;28;46188;-62
2022/12/23 09:18:52;;;;;;;;;11.00;10.00;;;;;;;;5058891;28;45419;-63
2022/12/23 09:21:20;;;;;;;;;7.75;7.75;;;;;;;;5058987;28;45311;-62
2022/12/23 09:23:45;;;;;;;;;9.00;8.00;;;;;;;;5078249;27;45319;-62
2022/12/23 09:26:15;;;;;;;;;8.50;8.00;;;;;;;;5078252;28;46565;-62
2022/12/23 09:28:40;;;;;;;;;18.75;14.25;;;;;;;;5078723;28;45341;-62
2022/12/23 09:31:07;;;;;;;;;9.00;9.00;;;;;;;;5078997;27;45526;-62
2022/12/23 09:33:32;;;;;;;;;7.75;7.75;;;;;;;;5078159;28;45470;-62
2022/12/23 09:36:01;;;;;;;;;9.50;6.25;;;;;;;;5078921;28;46519;-63
2022/12/23 09:38:26;;;;;;;;;10.50;9.50;;;;;;;;5079038;28;45445;-63
2022/12/23 09:40:51;;;;;;;;;9.50;8.75;;;;;;;;5078492;27;45226;-64
2022/12/23 09:43:19;;;;;;;;;7.00;6.75;;;;;;;;5077049;27;45213;-63
2022/12/23 09:45:47;;;;;;;;;9.00;8.00;;;;;;;;5078115;27;45545;-63
2022/12/23 09:48:15;;;;;;;;;11.50;10.25;;;;;;;;5078722;28;45407;-63
2022/12/23 09:50:40;;;;;;;;;9.25;8.00;;;;;;;;5077732;27;45261;-64
2022/12/23 09:53:10;;;;;;;;;9.50;8.25;;;;;;;;5077691;28;45435;-64
2022/12/23 09:55:48;;;;;;;;;9.50;7.00;;;;;;;;5078594;28;46634;-64
2022/12/23 09:58:27;;;;;;;;;9.50;7.25;;;;;;;;5078462;28;45339;-64
2022/12/23 10:01:09;;;;;;;;;10.75;7.75;;;;;;;;5074568;27;45493;-65
2022/12/23 10:03:39;;;;;;;;;8.75;7.25;;;;;;;;5077448;28;45444;-65
2022/12/23 10:06:11;;;;;;;;;7.00;5.75;;;;;;;;5077007;28;46300;-65
2022/12/23 10:08:45;;;;;;;;;5.50;4.75;;;;;;;;5059610;28;45467;-65
2022/12/23 10:11:13;;;;;;;;;11.00;8.00;;;;;;;;5069131;27;45765;-65
2022/12/23 10:13:41;;;;;;;;;9.25;6.50;;;;;;;;5076282;27;45441;-64
2022/12/23 10:16:10;;;;;;;;;5.00;5.00;;;;;;;;5075178;27;46252;-64
2022/12/23 10:18:41;;;;;;;;;6.75;5.00;;;;;;;;5076133;27;45511;-65
2022/12/23 10:21:10;;;;;;;;;4.00;4.00;;;;;;;;5077883;27;45473;-65
2022/12/23 10:23:37;;;;;;;;;5.50;5.25;;;;;;;;5098414;27;45425;-66
2022/12/23 10:26:20;;;;;;;;;10.25;5.50;;;;;;;;5079396;27;46733;-65
2022/12/23 10:28:45;;;;;;;;;20.00;20.00;;;;;;;;5077375;28;45391;-66
2022/12/23 10:31:14;;;;;;;;;7.75;6.00;;;;;;;;5077654;27;45531;-64
2022/12/23 10:33:49;;;;;;;;;7.00;5.75;;;;;;;;5074351;27;45903;-64
2022/12/23 10:36:22;;;;;;;;;9.25;6.00;;;;;;;;5071151;27;47391;-66
2022/12/23 10:38:47;;;;;;;;;9.00;7.50;;;;;;;;5057080;28;45490;-65
2022/12/23 10:41:18;;;;;;;;;7.25;6.00;;;;;;;;5067915;27;45381;-65
2022/12/23 10:43:43;;;;;;;;;8.00;8.00;;;;;;;;5077495;28;45480;-64
2022/12/23 10:46:12;;;;;;;;;7.50;7.50;;;;;;;;5077273;28;45539;-65
2022/12/23 10:48:47;;;;;;;;;6.25;6.25;;;;;;;;5077050;28;45440;-66
2022/12/23 10:51:20;;;;;;;;;4.50;4.50;;;;;;;;5076679;27;45332;-65
2022/12/23 10:53:55;;;;;;;;;5.00;5.00;;;;;;;;5076367;28;45439;-64
2022/12/23 10:56:21;;;;;;;;;6.50;4.50;;;;;;;;5076167;28;46543;-64
2022/12/23 10:58:49;;;;;;;;;4.00;3.25;;;;;;;;5075443;28;45424;-67
2022/12/23 11:01:16;;;;;;;;;4.75;4.00;;;;;;;;5075100;28;45626;-68
2022/12/23 11:03:43;;;;;;;;;1.25;1.25;;;;;;;;5075262;28;45469;-65
2022/12/23 11:06:10;;;;;;;;;2.75;2.00;;;;;;;;5074458;27;45420;-68
2022/12/23 11:08:36;;;;;;;;;17.75;16.25;;;;;;;;5076855;28;45457;-66
2022/12/23 11:11:01;;;;;;;;;5.75;4.00;;;;;;;;5076981;27;45332;-66
2022/12/23 11:13:34;;;;;;;;;1.50;1.50;;;;;;;;5077322;28;45438;-67
2022/12/23 11:16:16;;;;;;;;;2.00;2.00;;;;;;;;5076112;28;47282;-67
2022/12/23 11:19:10;;;;;;;;;2.75;2.00;;;;;;;;5075054;27;45408;-67
2022/12/23 11:21:36;;;;;;;;;2.75;2.50;;;;;;;;4974535;28;45529;-68
2022/12/23 11:24:17;;;;;;;;;2.50;2.50;;;;;;;;4974461;28;45578;-69
2022/12/23 11:26:47;;;;;;;;;3.00;3.00;;;;;;;;4973387;28;46527;-68
2022/12/23 11:29:21;;;;;;;;;1.25;1.25;;;;;;;;4973885;28;45498;-67
2022/12/23 11:31:47;;;;;;;;;1.00;1.00;;;;;;;;4974925;28;45418;-66
2022/12/23 11:34:14;;;;;;;;;5.75;4.00;;;;;;;;4974661;28;45454;-68
2022/12/23 11:36:40;;;;;;;;;3.50;2.75;;;;;;;;4973993;28;47256;-68
2022/12/23 11:39:11;;;;;;;;;3.00;3.00;;;;;;;;4972110;28;45483;-68
2022/12/23 11:41:38;;;;;;;;;3.00;3.00;;;;;;;;4974540;28;45668;-67
2022/12/23 11:44:15;;;;;;;;;4.00;3.00;;;;;;;;4974691;28;45990;-66
2022/12/23 11:46:40;;;;;;;;;2.25;2.00;;;;;;;;4974555;28;45476;-66
2022/12/23 11:49:11;;;;;;;;;2.00;0.00;;;;;;;;4974021;28;45590;-66
2022/12/23 11:51:36;;;;;;;;;1.50;1.50;;;;;;;;4974350;28;45485;-67
2022/12/23 11:54:01;;;;;;;;;1.25;1.25;;;;;;;;4973663;28;45545;-67
2022/12/23 11:56:27;;;;;;;;;1.25;1.25;;;;;;;;4971961;28;46420;-67
2022/12/23 11:58:57;;;;;;;;;1.00;1.00;;;;;;;;5060829;27;45538;-67
2022/12/23 12:01:24;;;;;;;;;3.00;1.75;;;;;;;;5076463;27;45466;-67
2022/12/23 12:03:52;;;;;;;;;1.00;1.00;;;;;;;;5078295;27;45458;-67
2022/12/23 12:06:18;;;;;;;;;3.00;2.00;;;;;;;;5076051;28;46677;-67
2022/12/23 12:08:47;;;;;;;;;3.25;2.00;;;;;;;;5076460;27;45446;-67
2022/12/23 12:11:14;;;;;;;;;0.25;0.25;;;;;;;;5077033;27;45329;-67
2022/12/23 12:13:44;;;;;;;;;0.50;0.50;;;;;;;;5082518;27;45396;-67
2022/12/23 12:16:26;;;;;;;;;3.00;0.00;;;;;;;;5085356;27;45492;-67
2022/12/23 12:18:54;;;;;;;;;1.75;1.75;;;;;;;;5068632;27;46619;-67
2022/12/23 12:21:24;;;;;;;;;0.00;0.00;;;;;;;;5100628;27;45488;-67
2022/12/23 12:23:52;;;;;;;;;0.25;0.25;;;;;;;;5085523;27;45462;-66
2022/12/23 12:26:28;;;;;;;;;2.25;1.00;;;;;;;;5086302;27;46215;-67
2022/12/23 12:28:57;;;;;;;;;2.00;1.00;;;;;;;;5079872;28;45422;-67
2022/12/23 12:31:26;;;;;;;;;1.00;1.00;;;;;;;;5072915;27;45470;-67
2022/12/23 12:33:57;;;;;;;;;2.00;1.00;;;;;;;;5078315;27;46279;-66
2022/12/23 12:36:29;;;;;;;;;3.00;3.00;;;;;;;;5077606;27;46137;-67
2022/12/23 12:38:56;;;;;;;;;3.00;1.00;;;;;;;;5078953;27;46747;-64
2022/12/23 12:41:26;;;;;;;;;0.00;0.00;;;;;;;;5074437;27;45520;-66
2022/12/23 12:43:59;;;;;;;;;0.50;0.50;;;;;;;;5077726;27;45511;-67
2022/12/23 12:46:53;;;;;;;;;1.00;1.00;;;;;;;;5069699;28;45379;-67
2022/12/23 12:49:19;;;;;;;;;0.00;0.00;;;;;;;;4976812;28;45431;-67
2022/12/23 12:51:57;;;;;;;;;0.75;0.75;;;;;;;;4975663;28;45684;-65
2022/12/23 12:54:26;;;;;;;;;0.25;0.00;;;;;;;;4975169;28;45523;-64
2022/12/23 12:56:52;;;;;;;;;1.50;1.50;;;;;;;;4976321;28;45459;-64
2022/12/23 12:59:26;;;;;;;;;1.50;1.50;;;;;;;;4975437;28;45532;-66
2022/12/23 13:02:15;;;;;;;;;3.00;0.75;;;;;;;;4976289;28;45550;-65
2022/12/23 13:04:49;;;;;;;;;1.50;0.00;;;;;;;;4973818;28;45893;-65
2022/12/23 13:07:14;;;;;;;;;0.50;0.50;;;;;;;;4975762;28;45592;-66
2022/12/23 13:09:48;;;;;;;;;1.50;1.00;;;;;;;;4968107;28;45556;-67
2022/12/23 13:12:21;;;;;;;;;1.25;0.25;;;;;;;;4974168;28;45451;-66
2022/12/23 13:14:57;;;;;;;;;0.75;0.75;;;;;;;;4977003;28;45621;-66
2022/12/23 13:17:34;;;;;;;;;0.50;0.50;;;;;;;;4976617;28;45796;-66
2022/12/23 13:20:08;;;;;;;;;0.00;0.00;;;;;;;;4976376;28;45488;-66
2022/12/23 13:22:34;;;;;;;;;1.50;1.50;;;;;;;;4975316;28;47024;-66
2022/12/23 13:24:59;;;;;;;;;2.50;1.00;;;;;;;;4996395;28;45426;-66
2022/12/23 13:27:24;;;;;;;;;1.25;0.00;;;;;;;;5077984;28;46507;-66
2022/12/23 13:30:03;;;;;;;;;0.00;0.00;;;;;;;;5077784;27;45627;-68
2022/12/23 13:32:35;;;;;;;;;2.00;0.50;;;;;;;;5078523;28;45375;-67
2022/12/23 13:35:00;;;;;;;;;81.00;69.00;;;;;;;;5077725;28;45340;-64
2022/12/23 13:37:25;;;;;;;;;10.00;5.75;;;;;;;;5077020;27;45518;-63
2022/12/23 13:39:56;;;;;;;;;3.25;1.00;;;;;;;;5077373;28;45352;-66
2022/12/23 13:42:42;;;;;;;;;4.00;2.50;;;;;;;;5060253;28;45425;-64
2022/12/23 13:45:14;;;;;;;;;8.50;3.75;;;;;;;;5076550;28;45707;-63
2022/12/23 13:47:45;;;;;;;;;3.50;2.75;;;;;;;;5077926;28;46531;-64
2022/12/23 13:50:23;;;;;;;;;6.00;4.75;;;;;;;;5074592;27;45462;-65
2022/12/23 13:53:00;;;;;;;;;3.75;2.00;;;;;;;;5078401;28;45451;-65
2022/12/23 13:55:46;;;;;;;;;3.25;2.75;;;;;;;;5078162;28;45563;-66
2022/12/23 13:58:15;;;;;;;;;4.25;3.00;;;;;;;;5077238;28;46279;-64
2022/12/23 14:00:41;;;;;;;;;21.00;20.00;;;;;;;;5077329;28;45439;-65
2022/12/23 14:03:11;;;;;;;;;20.00;18.33;;;;;;;;5077770;28;45472;-66
2022/12/23 14:05:40;;;;;;;;;9.75;7.25;;;;;;;;5075829;27;45728;-67
2022/12/23 14:08:18;;;;;;;;;9.50;5.50;;;;;;;;5095530;27;46342;-66
2022/12/23 14:10:49;;;;;;;;;2.75;2.75;;;;;;;;5092159;27;45492;-67
2022/12/23 14:13:16;;;;;;;;;22.67;17.33;;;;;;;;5077285;28;45484;-67
2022/12/23 14:15:56;;;;;;;;;8.50;5.50;;;;;;;;5076390;27;45345;-67
2022/12/23 14:18:27;;;;;;;;;7.25;4.75;;;;;;;;5077515;27;45788;-67
2022/12/23 14:20:55;;;;;;;;;7.00;3.00;;;;;;;;5076767;28;45459;-67
2022/12/23 14:23:39;;;;;;;;;8.75;6.25;;;;;;;;5067178;27;45400;-68
2022/12/23 14:26:04;;;;;;;;;6.25;2.25;;;;;;;;5077866;28;45440;-65
2022/12/23 14:28:30;;;;;;;;;8.50;6.50;;;;;;;;5076689;28;46651;-65
2022/12/23 14:30:55;;;;;;;;;4.75;3.00;;;;;;;;5074782;27;46488;-66
2022/12/23 14:33:25;;;;;;;;;6.00;3.75;;;;;;;;5076068;27;45423;-68
2022/12/23 14:36:12;;;;;;;;;2.50;2.50;;;;;;;;5077693;28;45391;-69
2022/12/23 14:38:37;;;;;;;;;6.00;5.50;;;;;;;;5076493;28;46318;-68
2022/12/23 14:41:17;;;;;;;;;9.25;3.50;;;;;;;;5077088;28;45468;-65
2022/12/23 14:43:42;;;;;;;;;5.00;3.00;;;;;;;;5071654;27;45813;-66
2022/12/23 14:46:27;;;;;;;;;5.75;4.00;;;;;;;;5076822;27;45333;-67
2022/12/23 14:48:52;;;;;;;;;5.25;5.00;;;;;;;;5073558;27;45448;-67
2022/12/23 14:51:23;;;;;;;;;7.25;4.75;;;;;;;;5080915;27;45506;-67
2022/12/23 14:54:00;;;;;;;;;6.00;4.00;;;;;;;;5077291;27;45328;-67
2022/12/23 14:56:38;;;;;;;;;5.25;4.25;;;;;;;;5053678;27;45513;-67
2022/12/23 14:59:12;;;;;;;;;11.50;4.25;;;;;;;;5071458;27;46543;-66
2022/12/23 15:01:40;;;;;;;;;9.25;4.50;;;;;;;;5057232;28;45374;-67
2022/12/23 15:04:10;;;;;;;;;11.25;5.25;;;;;;;;5057365;28;45430;-66
2022/12/23 15:06:44;;;;;;;;;8.00;4.00;;;;;;;;5057343;28;45680;-66
2022/12/23 15:09:26;;;;;;;;;8.00;4.50;;;;;;;;5057044;28;46306;-66
2022/12/23 15:11:53;;;;;;;;;8.75;6.50;;;;;;;;5057160;28;45175;-67
2022/12/23 15:14:29;;;;;;;;;10.25;3.00;;;;;;;;5057292;28;45571;-66
2022/12/23 15:16:54;;;;;;;;;8.25;4.75;;;;;;;;5057491;28;45277;-66